sensor_id;sensor_type;location;lat;lon;timestamp;P1;durP1;ratioP1;P2;durP2;ratioP2
33138;SDS011;19501;50.948;5.316;2023-08-17T00:01:47;15.63;;;6.03;;
33138;SDS011;19501;50.948;5.316;2023-08-17T00:04:13;14.90;;;6.30;;
33138;SDS011;19501;50.948;5.316;2023-08-17T00:06:38;14.25;;;6.13;;
33138;SDS011;19501;50.948;5.316;2023-08-17T00:09:06;14.68;;;6.35;;
33138;SDS011;19501;50.948;5.316;2023-08-17T00:11:32;17.08;;;7.15;;
33138;SDS011;19501;50.948;5.316;2023-08-17T00:13:58;13.50;;;5.93;;
33138;SDS011;19501;50.948;5.316;2023-08-17T00:16:24;13.63;;;6.10;;
33138;SDS011;19501;50.948;5.316;2023-08-17T00:18:50;14.52;;;6.20;;
33138;SDS011;19501;50.948;5.316;2023-08-17T00:21:16;16.52;;;6.85;;
33138;SDS011;19501;50.948;5.316;2023-08-17T00:23:42;12.57;;;5.72;;
33138;SDS011;19501;50.948;5.316;2023-08-17T00:26:08;13.05;;;5.75;;
33138;SDS011;19501;50.948;5.316;2023-08-17T00:28:34;13.45;;;6.38;;
33138;SDS011;19501;50.948;5.316;2023-08-17T00:31:00;14.07;;;5.80;;
33138;SDS011;19501;50.948;5.316;2023-08-17T00:33:26;13.50;;;6.53;;
33138;SDS011;19501;50.948;5.316;2023-08-17T00:35:52;14.25;;;6.63;;
33138;SDS011;19501;50.948;5.316;2023-08-17T00:38:18;20.27;;;6.53;;
33138;SDS011;19501;50.948;5.316;2023-08-17T00:40:43;15.13;;;6.28;;
33138;SDS011;19501;50.948;5.316;2023-08-17T00:43:11;16.67;;;6.07;;
33138;SDS011;19501;50.948;5.316;2023-08-17T00:45:37;16.00;;;6.25;;
33138;SDS011;19501;50.948;5.316;2023-08-17T00:48:03;19.38;;;6.18;;
33138;SDS011;19501;50.948;5.316;2023-08-17T00:50:35;15.10;;;6.47;;
33138;SDS011;19501;50.948;5.316;2023-08-17T00:53:04;15.25;;;5.97;;
33138;SDS011;19501;50.948;5.316;2023-08-17T00:55:30;14.85;;;5.85;;
33138;SDS011;19501;50.948;5.316;2023-08-17T00:57:57;13.40;;;5.70;;
33138;SDS011;19501;50.948;5.316;2023-08-17T01:00:23;17.75;;;5.60;;
33138;SDS011;19501;50.948;5.316;2023-08-17T01:02:53;15.45;;;5.88;;
33138;SDS011;19501;50.948;5.316;2023-08-17T01:05:19;13.68;;;5.50;;
33138;SDS011;19501;50.948;5.316;2023-08-17T01:07:45;12.52;;;5.80;;
33138;SDS011;19501;50.948;5.316;2023-08-17T01:10:10;15.60;;;6.10;;
33138;SDS011;19501;50.948;5.316;2023-08-17T01:12:38;15.00;;;5.68;;
33138;SDS011;19501;50.948;5.316;2023-08-17T01:15:24;14.15;;;5.72;;
33138;SDS011;19501;50.948;5.316;2023-08-17T01:20:29;14.10;;;5.72;;
33138;SDS011;19501;50.948;5.316;2023-08-17T01:23:02;16.80;;;5.95;;
33138;SDS011;19501;50.948;5.316;2023-08-17T01:25:31;15.63;;;6.00;;
33138;SDS011;19501;50.948;5.316;2023-08-17T01:28:01;16.08;;;5.75;;
33138;SDS011;19501;50.948;5.316;2023-08-17T01:30:28;15.90;;;5.82;;
33138;SDS011;19501;50.948;5.316;2023-08-17T01:33:00;16.05;;;5.90;;
33138;SDS011;19501;50.948;5.316;2023-08-17T01:38:08;11.63;;;5.70;;
33138;SDS011;19501;50.948;5.316;2023-08-17T01:40:37;17.70;;;6.13;;
33138;SDS011;19501;50.948;5.316;2023-08-17T01:43:03;16.95;;;6.53;;
33138;SDS011;19501;50.948;5.316;2023-08-17T01:45:29;17.17;;;5.82;;
33138;SDS011;19501;50.948;5.316;2023-08-17T01:47:55;18.00;;;6.38;;
33138;SDS011;19501;50.948;5.316;2023-08-17T01:50:21;20.35;;;6.72;;
33138;SDS011;19501;50.948;5.316;2023-08-17T01:52:47;15.10;;;5.85;;
33138;SDS011;19501;50.948;5.316;2023-08-17T01:55:12;15.95;;;6.10;;
33138;SDS011;19501;50.948;5.316;2023-08-17T01:57:40;14.73;;;5.72;;
33138;SDS011;19501;50.948;5.316;2023-08-17T02:00:06;15.70;;;6.40;;
33138;SDS011;19501;50.948;5.316;2023-08-17T02:02:35;13.27;;;5.82;;
33138;SDS011;19501;50.948;5.316;2023-08-17T02:05:01;16.05;;;6.78;;
33138;SDS011;19501;50.948;5.316;2023-08-17T02:07:27;13.55;;;6.00;;
33138;SDS011;19501;50.948;5.316;2023-08-17T02:09:53;17.73;;;6.40;;
33138;SDS011;19501;50.948;5.316;2023-08-17T02:12:19;14.32;;;6.18;;
33138;SDS011;19501;50.948;5.316;2023-08-17T02:14:44;20.13;;;6.47;;
33138;SDS011;19501;50.948;5.316;2023-08-17T02:17:10;16.63;;;6.68;;
33138;SDS011;19501;50.948;5.316;2023-08-17T02:19:36;14.63;;;5.70;;
33138;SDS011;19501;50.948;5.316;2023-08-17T02:22:02;12.57;;;6.03;;
33138;SDS011;19501;50.948;5.316;2023-08-17T02:24:27;16.00;;;7.15;;
33138;SDS011;19501;50.948;5.316;2023-08-17T02:26:53;16.45;;;6.93;;
33138;SDS011;19501;50.948;5.316;2023-08-17T02:29:19;15.27;;;6.70;;
33138;SDS011;19501;50.948;5.316;2023-08-17T02:31:44;16.17;;;6.30;;
33138;SDS011;19501;50.948;5.316;2023-08-17T02:34:10;14.02;;;6.53;;
33138;SDS011;19501;50.948;5.316;2023-08-17T02:36:35;14.90;;;6.55;;
33138;SDS011;19501;50.948;5.316;2023-08-17T02:39:01;15.35;;;6.22;;
33138;SDS011;19501;50.948;5.316;2023-08-17T02:41:30;14.88;;;6.25;;
33138;SDS011;19501;50.948;5.316;2023-08-17T02:43:57;16.35;;;6.70;;
33138;SDS011;19501;50.948;5.316;2023-08-17T02:46:23;15.10;;;6.45;;
33138;SDS011;19501;50.948;5.316;2023-08-17T02:48:48;12.90;;;5.97;;
33138;SDS011;19501;50.948;5.316;2023-08-17T02:51:15;12.95;;;6.28;;
33138;SDS011;19501;50.948;5.316;2023-08-17T02:53:41;14.65;;;6.57;;
33138;SDS011;19501;50.948;5.316;2023-08-17T02:56:09;16.55;;;6.40;;
33138;SDS011;19501;50.948;5.316;2023-08-17T02:58:38;15.77;;;6.40;;
33138;SDS011;19501;50.948;5.316;2023-08-17T03:01:07;14.13;;;6.70;;
33138;SDS011;19501;50.948;5.316;2023-08-17T03:03:33;14.45;;;6.32;;
33138;SDS011;19501;50.948;5.316;2023-08-17T03:05:59;16.63;;;6.57;;
33138;SDS011;19501;50.948;5.316;2023-08-17T03:08:27;13.80;;;6.60;;
33138;SDS011;19501;50.948;5.316;2023-08-17T03:10:53;18.10;;;6.80;;
33138;SDS011;19501;50.948;5.316;2023-08-17T03:13:19;13.05;;;6.25;;
33138;SDS011;19501;50.948;5.316;2023-08-17T03:15:44;18.10;;;6.25;;
33138;SDS011;19501;50.948;5.316;2023-08-17T03:18:10;15.95;;;6.25;;
33138;SDS011;19501;50.948;5.316;2023-08-17T03:20:36;13.98;;;6.18;;
33138;SDS011;19501;50.948;5.316;2023-08-17T03:23:01;17.83;;;6.78;;
33138;SDS011;19501;50.948;5.316;2023-08-17T03:25:31;16.42;;;6.55;;
33138;SDS011;19501;50.948;5.316;2023-08-17T03:27:57;21.52;;;7.72;;
33138;SDS011;19501;50.948;5.316;2023-08-17T03:30:24;15.75;;;6.47;;
33138;SDS011;19501;50.948;5.316;2023-08-17T03:32:50;15.60;;;6.65;;
33138;SDS011;19501;50.948;5.316;2023-08-17T03:35:18;14.80;;;6.25;;
33138;SDS011;19501;50.948;5.316;2023-08-17T03:37:44;14.77;;;7.00;;
33138;SDS011;19501;50.948;5.316;2023-08-17T03:40:10;14.00;;;6.75;;
33138;SDS011;19501;50.948;5.316;2023-08-17T03:42:36;19.88;;;7.80;;
33138;SDS011;19501;50.948;5.316;2023-08-17T03:45:02;16.38;;;7.63;;
33138;SDS011;19501;50.948;5.316;2023-08-17T03:47:28;14.10;;;6.43;;
33138;SDS011;19501;50.948;5.316;2023-08-17T03:49:53;17.38;;;7.72;;
33138;SDS011;19501;50.948;5.316;2023-08-17T03:52:19;16.90;;;6.88;;
33138;SDS011;19501;50.948;5.316;2023-08-17T03:54:45;18.20;;;7.13;;
33138;SDS011;19501;50.948;5.316;2023-08-17T03:57:12;19.27;;;7.88;;
33138;SDS011;19501;50.948;5.316;2023-08-17T03:59:37;18.17;;;8.02;;
33138;SDS011;19501;50.948;5.316;2023-08-17T04:02:05;18.27;;;8.27;;
33138;SDS011;19501;50.948;5.316;2023-08-17T04:04:31;16.27;;;7.70;;
33138;SDS011;19501;50.948;5.316;2023-08-17T04:06:58;17.88;;;7.75;;
33138;SDS011;19501;50.948;5.316;2023-08-17T04:09:23;18.45;;;7.90;;
33138;SDS011;19501;50.948;5.316;2023-08-17T04:11:49;16.25;;;7.28;;
33138;SDS011;19501;50.948;5.316;2023-08-17T04:14:15;20.17;;;8.45;;
33138;SDS011;19501;50.948;5.316;2023-08-17T04:16:40;15.48;;;6.90;;
33138;SDS011;19501;50.948;5.316;2023-08-17T04:19:06;15.20;;;6.75;;
33138;SDS011;19501;50.948;5.316;2023-08-17T04:21:32;18.80;;;7.43;;
33138;SDS011;19501;50.948;5.316;2023-08-17T04:23:57;17.20;;;7.82;;
33138;SDS011;19501;50.948;5.316;2023-08-17T04:26:23;21.30;;;7.60;;
33138;SDS011;19501;50.948;5.316;2023-08-17T04:28:49;15.00;;;6.50;;
33138;SDS011;19501;50.948;5.316;2023-08-17T04:31:15;15.77;;;7.28;;
33138;SDS011;19501;50.948;5.316;2023-08-17T04:33:42;16.60;;;7.22;;
33138;SDS011;19501;50.948;5.316;2023-08-17T04:36:08;16.98;;;8.15;;
33138;SDS011;19501;50.948;5.316;2023-08-17T04:38:33;19.08;;;7.45;;
33138;SDS011;19501;50.948;5.316;2023-08-17T04:40:59;19.27;;;8.07;;
33138;SDS011;19501;50.948;5.316;2023-08-17T04:43:25;19.08;;;7.85;;
33138;SDS011;19501;50.948;5.316;2023-08-17T04:45:50;18.67;;;7.47;;
33138;SDS011;19501;50.948;5.316;2023-08-17T04:48:16;18.35;;;8.23;;
33138;SDS011;19501;50.948;5.316;2023-08-17T04:50:42;18.35;;;8.57;;
33138;SDS011;19501;50.948;5.316;2023-08-17T04:53:07;18.40;;;8.20;;
33138;SDS011;19501;50.948;5.316;2023-08-17T04:55:33;19.02;;;7.95;;
33138;SDS011;19501;50.948;5.316;2023-08-17T04:57:58;19.02;;;7.78;;
33138;SDS011;19501;50.948;5.316;2023-08-17T05:00:24;17.80;;;8.38;;
33138;SDS011;19501;50.948;5.316;2023-08-17T05:02:53;18.70;;;7.60;;
33138;SDS011;19501;50.948;5.316;2023-08-17T05:05:19;16.92;;;7.72;;
33138;SDS011;19501;50.948;5.316;2023-08-17T05:07:45;16.58;;;7.10;;
33138;SDS011;19501;50.948;5.316;2023-08-17T05:10:11;17.98;;;7.90;;
33138;SDS011;19501;50.948;5.316;2023-08-17T05:12:37;18.55;;;7.10;;
33138;SDS011;19501;50.948;5.316;2023-08-17T05:15:04;15.80;;;7.15;;
33138;SDS011;19501;50.948;5.316;2023-08-17T05:17:31;17.75;;;7.57;;
33138;SDS011;19501;50.948;5.316;2023-08-17T05:19:56;18.75;;;6.95;;
33138;SDS011;19501;50.948;5.316;2023-08-17T05:22:22;20.90;;;7.95;;
33138;SDS011;19501;50.948;5.316;2023-08-17T05:24:48;16.40;;;7.03;;
33138;SDS011;19501;50.948;5.316;2023-08-17T05:27:13;18.00;;;7.03;;
33138;SDS011;19501;50.948;5.316;2023-08-17T05:29:39;19.70;;;8.52;;
33138;SDS011;19501;50.948;5.316;2023-08-17T05:32:05;16.20;;;6.50;;
33138;SDS011;19501;50.948;5.316;2023-08-17T05:34:31;14.77;;;6.90;;
33138;SDS011;19501;50.948;5.316;2023-08-17T05:36:56;18.33;;;6.97;;
33138;SDS011;19501;50.948;5.316;2023-08-17T05:39:22;18.70;;;7.13;;
33138;SDS011;19501;50.948;5.316;2023-08-17T05:41:48;17.90;;;7.22;;
33138;SDS011;19501;50.948;5.316;2023-08-17T05:44:14;19.35;;;7.70;;
33138;SDS011;19501;50.948;5.316;2023-08-17T05:46:40;19.77;;;7.38;;
33138;SDS011;19501;50.948;5.316;2023-08-17T05:49:06;17.25;;;7.65;;
33138;SDS011;19501;50.948;5.316;2023-08-17T05:51:31;19.30;;;7.70;;
33138;SDS011;19501;50.948;5.316;2023-08-17T05:53:57;17.77;;;7.35;;
33138;SDS011;19501;50.948;5.316;2023-08-17T05:56:23;15.20;;;7.30;;
33138;SDS011;19501;50.948;5.316;2023-08-17T05:58:49;17.45;;;7.50;;
33138;SDS011;19501;50.948;5.316;2023-08-17T06:01:14;20.63;;;7.85;;
33138;SDS011;19501;50.948;5.316;2023-08-17T06:03:40;16.75;;;7.63;;
33138;SDS011;19501;50.948;5.316;2023-08-17T06:06:06;16.02;;;7.20;;
33138;SDS011;19501;50.948;5.316;2023-08-17T06:08:32;18.55;;;7.40;;
33138;SDS011;19501;50.948;5.316;2023-08-17T06:10:58;18.15;;;7.50;;
33138;SDS011;19501;50.948;5.316;2023-08-17T06:13:23;20.30;;;7.45;;
33138;SDS011;19501;50.948;5.316;2023-08-17T06:15:49;22.52;;;7.72;;
33138;SDS011;19501;50.948;5.316;2023-08-17T06:18:15;17.45;;;7.60;;
33138;SDS011;19501;50.948;5.316;2023-08-17T06:20:40;19.77;;;7.38;;
33138;SDS011;19501;50.948;5.316;2023-08-17T06:23:06;22.98;;;8.73;;
33138;SDS011;19501;50.948;5.316;2023-08-17T06:25:32;18.23;;;7.82;;
33138;SDS011;19501;50.948;5.316;2023-08-17T06:27:59;16.13;;;7.28;;
33138;SDS011;19501;50.948;5.316;2023-08-17T06:30:26;19.73;;;7.47;;
33138;SDS011;19501;50.948;5.316;2023-08-17T06:32:51;16.30;;;7.00;;
33138;SDS011;19501;50.948;5.316;2023-08-17T06:35:17;20.80;;;8.52;;
33138;SDS011;19501;50.948;5.316;2023-08-17T06:37:43;21.77;;;8.75;;
33138;SDS011;19501;50.948;5.316;2023-08-17T06:40:08;28.13;;;9.88;;
33138;SDS011;19501;50.948;5.316;2023-08-17T06:42:34;21.40;;;9.35;;
33138;SDS011;19501;50.948;5.316;2023-08-17T06:45:00;27.60;;;10.55;;
33138;SDS011;19501;50.948;5.316;2023-08-17T06:47:26;23.83;;;10.20;;
33138;SDS011;19501;50.948;5.316;2023-08-17T06:49:52;23.17;;;10.07;;
33138;SDS011;19501;50.948;5.316;2023-08-17T06:52:17;24.05;;;10.10;;
33138;SDS011;19501;50.948;5.316;2023-08-17T06:54:46;25.42;;;10.32;;
33138;SDS011;19501;50.948;5.316;2023-08-17T06:57:11;24.55;;;11.00;;
33138;SDS011;19501;50.948;5.316;2023-08-17T06:59:37;27.00;;;10.70;;
33138;SDS011;19501;50.948;5.316;2023-08-17T07:02:03;28.90;;;13.27;;
33138;SDS011;19501;50.948;5.316;2023-08-17T07:04:28;25.27;;;11.02;;
33138;SDS011;19501;50.948;5.316;2023-08-17T07:06:54;30.55;;;13.40;;
33138;SDS011;19501;50.948;5.316;2023-08-17T07:09:20;28.77;;;13.50;;
33138;SDS011;19501;50.948;5.316;2023-08-17T07:11:46;34.72;;;15.00;;
33138;SDS011;19501;50.948;5.316;2023-08-17T07:14:11;36.70;;;15.50;;
33138;SDS011;19501;50.948;5.316;2023-08-17T07:16:37;30.85;;;14.95;;
33138;SDS011;19501;50.948;5.316;2023-08-17T07:19:03;35.70;;;15.20;;
33138;SDS011;19501;50.948;5.316;2023-08-17T07:21:29;33.53;;;14.18;;
33138;SDS011;19501;50.948;5.316;2023-08-17T07:23:55;31.77;;;14.10;;
33138;SDS011;19501;50.948;5.316;2023-08-17T07:26:21;35.20;;;13.90;;
33138;SDS011;19501;50.948;5.316;2023-08-17T07:28:47;33.03;;;14.93;;
33138;SDS011;19501;50.948;5.316;2023-08-17T07:31:13;31.45;;;15.05;;
33138;SDS011;19501;50.948;5.316;2023-08-17T07:33:39;32.15;;;14.77;;
33138;SDS011;19501;50.948;5.316;2023-08-17T07:36:05;29.88;;;14.65;;
33138;SDS011;19501;50.948;5.316;2023-08-17T07:38:31;35.75;;;14.27;;
33138;SDS011;19501;50.948;5.316;2023-08-17T07:40:57;30.10;;;13.23;;
33138;SDS011;19501;50.948;5.316;2023-08-17T07:43:22;29.27;;;14.60;;
33138;SDS011;19501;50.948;5.316;2023-08-17T07:45:55;31.58;;;13.82;;
33138;SDS011;19501;50.948;5.316;2023-08-17T07:48:21;29.92;;;13.75;;
33138;SDS011;19501;50.948;5.316;2023-08-17T07:50:50;30.27;;;14.00;;
33138;SDS011;19501;50.948;5.316;2023-08-17T07:53:17;28.17;;;13.95;;
33138;SDS011;19501;50.948;5.316;2023-08-17T07:55:43;31.45;;;14.65;;
33138;SDS011;19501;50.948;5.316;2023-08-17T07:58:09;29.73;;;14.10;;
33138;SDS011;19501;50.948;5.316;2023-08-17T08:00:35;33.05;;;14.18;;
33138;SDS011;19501;50.948;5.316;2023-08-17T08:03:01;31.33;;;14.73;;
33138;SDS011;19501;50.948;5.316;2023-08-17T08:05:26;30.23;;;14.63;;
33138;SDS011;19501;50.948;5.316;2023-08-17T08:07:52;33.05;;;15.35;;
33138;SDS011;19501;50.948;5.316;2023-08-17T08:10:18;31.38;;;14.30;;
33138;SDS011;19501;50.948;5.316;2023-08-17T08:12:46;33.88;;;15.35;;
33138;SDS011;19501;50.948;5.316;2023-08-17T08:15:12;32.58;;;14.15;;
33138;SDS011;19501;50.948;5.316;2023-08-17T08:17:37;29.00;;;13.23;;
33138;SDS011;19501;50.948;5.316;2023-08-17T08:20:03;34.10;;;15.82;;
33138;SDS011;19501;50.948;5.316;2023-08-17T08:22:29;32.47;;;14.70;;
33138;SDS011;19501;50.948;5.316;2023-08-17T08:24:55;27.23;;;15.02;;
33138;SDS011;19501;50.948;5.316;2023-08-17T08:27:21;34.67;;;15.73;;
33138;SDS011;19501;50.948;5.316;2023-08-17T08:29:47;33.22;;;16.30;;
33138;SDS011;19501;50.948;5.316;2023-08-17T08:32:12;30.80;;;15.07;;
33138;SDS011;19501;50.948;5.316;2023-08-17T08:34:38;27.63;;;14.23;;
33138;SDS011;19501;50.948;5.316;2023-08-17T08:37:06;30.63;;;15.43;;
33138;SDS011;19501;50.948;5.316;2023-08-17T08:39:32;33.58;;;16.17;;
33138;SDS011;19501;50.948;5.316;2023-08-17T08:41:58;34.60;;;15.90;;
33138;SDS011;19501;50.948;5.316;2023-08-17T08:44:23;32.90;;;16.30;;
33138;SDS011;19501;50.948;5.316;2023-08-17T08:46:50;34.92;;;17.33;;
33138;SDS011;19501;50.948;5.316;2023-08-17T08:49:20;40.13;;;18.95;;
33138;SDS011;19501;50.948;5.316;2023-08-17T08:51:49;37.28;;;19.42;;
33138;SDS011;19501;50.948;5.316;2023-08-17T08:54:20;35.92;;;19.23;;
33138;SDS011;19501;50.948;5.316;2023-08-17T08:56:51;39.80;;;19.70;;
33138;SDS011;19501;50.948;5.316;2023-08-17T08:59:24;39.38;;;20.23;;
33138;SDS011;19501;50.948;5.316;2023-08-17T09:01:52;35.47;;;18.73;;
33138;SDS011;19501;50.948;5.316;2023-08-17T09:04:18;37.17;;;19.67;;
33138;SDS011;19501;50.948;5.316;2023-08-17T09:06:44;34.03;;;19.67;;
33138;SDS011;19501;50.948;5.316;2023-08-17T09:09:11;34.55;;;19.08;;
33138;SDS011;19501;50.948;5.316;2023-08-17T09:11:41;34.88;;;19.73;;
33138;SDS011;19501;50.948;5.316;2023-08-17T09:14:07;32.85;;;18.42;;
33138;SDS011;19501;50.948;5.316;2023-08-17T09:16:33;33.60;;;20.63;;
33138;SDS011;19501;50.948;5.316;2023-08-17T09:18:59;33.35;;;20.17;;
33138;SDS011;19501;50.948;5.316;2023-08-17T09:21:25;36.38;;;19.90;;
33138;SDS011;19501;50.948;5.316;2023-08-17T09:23:51;32.30;;;20.52;;
33138;SDS011;19501;50.948;5.316;2023-08-17T09:26:20;32.78;;;20.23;;
33138;SDS011;19501;50.948;5.316;2023-08-17T09:28:48;33.22;;;21.05;;
33138;SDS011;19501;50.948;5.316;2023-08-17T09:31:15;34.67;;;21.52;;
33138;SDS011;19501;50.948;5.316;2023-08-17T09:33:40;37.72;;;23.42;;
33138;SDS011;19501;50.948;5.316;2023-08-17T09:36:06;37.33;;;21.75;;
33138;SDS011;19501;50.948;5.316;2023-08-17T09:38:34;39.10;;;23.65;;
33138;SDS011;19501;50.948;5.316;2023-08-17T09:41:02;34.30;;;21.45;;
33138;SDS011;19501;50.948;5.316;2023-08-17T09:43:30;39.97;;;22.48;;
33138;SDS011;19501;50.948;5.316;2023-08-17T09:45:59;34.85;;;21.75;;
33138;SDS011;19501;50.948;5.316;2023-08-17T09:48:27;37.13;;;22.83;;
33138;SDS011;19501;50.948;5.316;2023-08-17T09:50:53;37.65;;;22.60;;
33138;SDS011;19501;50.948;5.316;2023-08-17T09:53:22;39.60;;;22.77;;
33138;SDS011;19501;50.948;5.316;2023-08-17T09:55:48;41.45;;;22.73;;
33138;SDS011;19501;50.948;5.316;2023-08-17T09:58:14;41.30;;;21.98;;
33138;SDS011;19501;50.948;5.316;2023-08-17T10:00:43;37.95;;;22.23;;
33138;SDS011;19501;50.948;5.316;2023-08-17T10:03:14;43.00;;;23.50;;
33138;SDS011;19501;50.948;5.316;2023-08-17T10:05:41;43.45;;;24.88;;
33138;SDS011;19501;50.948;5.316;2023-08-17T10:08:12;41.80;;;25.13;;
33138;SDS011;19501;50.948;5.316;2023-08-17T10:10:44;40.90;;;23.98;;
33138;SDS011;19501;50.948;5.316;2023-08-17T10:15:51;44.30;;;24.17;;
33138;SDS011;19501;50.948;5.316;2023-08-17T10:21:21;40.58;;;21.67;;
33138;SDS011;19501;50.948;5.316;2023-08-17T10:23:56;42.07;;;23.27;;
33138;SDS011;19501;50.948;5.316;2023-08-17T10:26:23;39.45;;;21.05;;
33138;SDS011;19501;50.948;5.316;2023-08-17T10:28:50;37.13;;;22.52;;
33138;SDS011;19501;50.948;5.316;2023-08-17T10:31:16;38.58;;;21.30;;
33138;SDS011;19501;50.948;5.316;2023-08-17T10:33:42;35.65;;;20.88;;
33138;SDS011;19501;50.948;5.316;2023-08-17T10:36:12;34.83;;;18.92;;
33138;SDS011;19501;50.948;5.316;2023-08-17T10:38:39;34.67;;;18.13;;
33138;SDS011;19501;50.948;5.316;2023-08-17T10:41:07;37.20;;;20.05;;
33138;SDS011;19501;50.948;5.316;2023-08-17T10:43:34;31.17;;;17.77;;
33138;SDS011;19501;50.948;5.316;2023-08-17T10:46:34;31.73;;;17.80;;
33138;SDS011;19501;50.948;5.316;2023-08-17T10:49:05;34.63;;;19.88;;
33138;SDS011;19501;50.948;5.316;2023-08-17T10:52:08;34.58;;;19.48;;
33138;SDS011;19501;50.948;5.316;2023-08-17T10:54:37;35.45;;;20.77;;
33138;SDS011;19501;50.948;5.316;2023-08-17T11:02:39;38.35;;;22.25;;
33138;SDS011;19501;50.948;5.316;2023-08-17T11:05:05;36.80;;;21.92;;
33138;SDS011;19501;50.948;5.316;2023-08-17T11:07:42;39.55;;;21.95;;
33138;SDS011;19501;50.948;5.316;2023-08-17T11:12:46;38.47;;;20.77;;
33138;SDS011;19501;50.948;5.316;2023-08-17T11:15:13;35.90;;;21.25;;
33138;SDS011;19501;50.948;5.316;2023-08-17T11:17:39;36.72;;;21.98;;
33138;SDS011;19501;50.948;5.316;2023-08-17T11:20:04;37.70;;;23.05;;
33138;SDS011;19501;50.948;5.316;2023-08-17T11:22:31;40.03;;;22.42;;
33138;SDS011;19501;50.948;5.316;2023-08-17T11:24:57;35.85;;;20.92;;
33138;SDS011;19501;50.948;5.316;2023-08-17T11:27:23;35.47;;;21.45;;
33138;SDS011;19501;50.948;5.316;2023-08-17T11:29:49;37.58;;;22.02;;
33138;SDS011;19501;50.948;5.316;2023-08-17T11:32:17;36.85;;;22.05;;
33138;SDS011;19501;50.948;5.316;2023-08-17T11:34:44;36.63;;;20.23;;
33138;SDS011;19501;50.948;5.316;2023-08-17T11:37:13;35.55;;;21.33;;
33138;SDS011;19501;50.948;5.316;2023-08-17T11:39:39;36.47;;;20.88;;
33138;SDS011;19501;50.948;5.316;2023-08-17T11:42:04;36.60;;;20.63;;
33138;SDS011;19501;50.948;5.316;2023-08-17T11:44:30;35.33;;;20.60;;
33138;SDS011;19501;50.948;5.316;2023-08-17T11:46:57;36.00;;;20.33;;
33138;SDS011;19501;50.948;5.316;2023-08-17T11:49:41;37.17;;;21.40;;
33138;SDS011;19501;50.948;5.316;2023-08-17T11:52:09;38.13;;;21.40;;
33138;SDS011;19501;50.948;5.316;2023-08-17T11:54:39;39.38;;;21.88;;
33138;SDS011;19501;50.948;5.316;2023-08-17T11:57:06;41.42;;;22.00;;
33138;SDS011;19501;50.948;5.316;2023-08-17T11:59:32;35.60;;;20.10;;
33138;SDS011;19501;50.948;5.316;2023-08-17T12:01:58;37.25;;;21.80;;
33138;SDS011;19501;50.948;5.316;2023-08-17T12:04:25;38.42;;;22.63;;
33138;SDS011;19501;50.948;5.316;2023-08-17T12:06:51;36.15;;;22.15;;
33138;SDS011;19501;50.948;5.316;2023-08-17T12:09:17;41.88;;;24.00;;
33138;SDS011;19501;50.948;5.316;2023-08-17T12:11:46;38.08;;;22.95;;
33138;SDS011;19501;50.948;5.316;2023-08-17T12:14:12;37.90;;;22.50;;
33138;SDS011;19501;50.948;5.316;2023-08-17T12:16:47;38.70;;;22.40;;
33138;SDS011;19501;50.948;5.316;2023-08-17T12:19:13;37.63;;;22.90;;
33138;SDS011;19501;50.948;5.316;2023-08-17T12:21:42;36.38;;;21.00;;
33138;SDS011;19501;50.948;5.316;2023-08-17T12:24:09;38.97;;;21.45;;
33138;SDS011;19501;50.948;5.316;2023-08-17T12:26:40;36.53;;;21.83;;
33138;SDS011;19501;50.948;5.316;2023-08-17T12:29:06;35.65;;;22.50;;
33138;SDS011;19501;50.948;5.316;2023-08-17T12:31:32;36.92;;;21.23;;
33138;SDS011;19501;50.948;5.316;2023-08-17T12:33:59;36.67;;;21.23;;
33138;SDS011;19501;50.948;5.316;2023-08-17T12:36:25;37.17;;;20.17;;
33138;SDS011;19501;50.948;5.316;2023-08-17T12:38:51;35.85;;;20.42;;
33138;SDS011;19501;50.948;5.316;2023-08-17T12:41:16;38.50;;;22.73;;
33138;SDS011;19501;50.948;5.316;2023-08-17T12:43:42;37.05;;;21.85;;
33138;SDS011;19501;50.948;5.316;2023-08-17T12:46:08;32.65;;;20.05;;
33138;SDS011;19501;50.948;5.316;2023-08-17T12:48:35;37.47;;;21.42;;
33138;SDS011;19501;50.948;5.316;2023-08-17T12:51:01;33.50;;;20.38;;
33138;SDS011;19501;50.948;5.316;2023-08-17T12:53:28;32.65;;;20.70;;
33138;SDS011;19501;50.948;5.316;2023-08-17T12:55:53;31.67;;;19.17;;
33138;SDS011;19501;50.948;5.316;2023-08-17T12:58:19;33.08;;;19.52;;
33138;SDS011;19501;50.948;5.316;2023-08-17T13:00:45;33.00;;;18.48;;
33138;SDS011;19501;50.948;5.316;2023-08-17T13:03:10;31.30;;;18.25;;
33138;SDS011;19501;50.948;5.316;2023-08-17T13:05:36;32.97;;;17.85;;
33138;SDS011;19501;50.948;5.316;2023-08-17T13:08:02;32.80;;;18.40;;
33138;SDS011;19501;50.948;5.316;2023-08-17T13:10:28;30.40;;;18.95;;
33138;SDS011;19501;50.948;5.316;2023-08-17T13:12:56;32.08;;;18.00;;
33138;SDS011;19501;50.948;5.316;2023-08-17T13:15:24;33.78;;;18.70;;
33138;SDS011;19501;50.948;5.316;2023-08-17T13:17:50;32.38;;;18.17;;
33138;SDS011;19501;50.948;5.316;2023-08-17T13:20:15;30.95;;;17.33;;
33138;SDS011;19501;50.948;5.316;2023-08-17T13:22:44;31.95;;;17.33;;
33138;SDS011;19501;50.948;5.316;2023-08-17T13:25:09;31.10;;;17.70;;
33138;SDS011;19501;50.948;5.316;2023-08-17T13:27:35;30.25;;;17.23;;
33138;SDS011;19501;50.948;5.316;2023-08-17T13:30:01;31.38;;;18.08;;
33138;SDS011;19501;50.948;5.316;2023-08-17T13:32:27;28.90;;;16.73;;
33138;SDS011;19501;50.948;5.316;2023-08-17T13:34:53;32.08;;;17.52;;
33138;SDS011;19501;50.948;5.316;2023-08-17T13:37:19;31.08;;;17.80;;
33138;SDS011;19501;50.948;5.316;2023-08-17T13:39:45;29.75;;;17.13;;
33138;SDS011;19501;50.948;5.316;2023-08-17T13:42:11;31.08;;;17.27;;
33138;SDS011;19501;50.948;5.316;2023-08-17T13:44:37;30.52;;;17.50;;
33138;SDS011;19501;50.948;5.316;2023-08-17T13:47:03;35.28;;;18.92;;
33138;SDS011;19501;50.948;5.316;2023-08-17T13:49:29;32.83;;;17.23;;
33138;SDS011;19501;50.948;5.316;2023-08-17T13:51:55;30.20;;;17.45;;
33138;SDS011;19501;50.948;5.316;2023-08-17T13:54:21;30.65;;;17.13;;
33138;SDS011;19501;50.948;5.316;2023-08-17T13:56:48;35.30;;;18.15;;
33138;SDS011;19501;50.948;5.316;2023-08-17T13:59:13;31.85;;;18.80;;
33138;SDS011;19501;50.948;5.316;2023-08-17T14:01:39;35.35;;;20.42;;
33138;SDS011;19501;50.948;5.316;2023-08-17T14:04:05;33.63;;;18.30;;
33138;SDS011;19501;50.948;5.316;2023-08-17T14:06:36;32.10;;;18.60;;
33138;SDS011;19501;50.948;5.316;2023-08-17T14:09:04;34.80;;;18.88;;
33138;SDS011;19501;50.948;5.316;2023-08-17T14:11:30;30.33;;;17.90;;
33138;SDS011;19501;50.948;5.316;2023-08-17T14:13:56;34.85;;;19.05;;
33138;SDS011;19501;50.948;5.316;2023-08-17T14:16:24;35.40;;;20.58;;
33138;SDS011;19501;50.948;5.316;2023-08-17T14:18:49;34.47;;;18.92;;
33138;SDS011;19501;50.948;5.316;2023-08-17T14:21:15;35.35;;;20.42;;
33138;SDS011;19501;50.948;5.316;2023-08-17T14:23:41;37.42;;;20.55;;
33138;SDS011;19501;50.948;5.316;2023-08-17T14:26:07;30.77;;;17.35;;
33138;SDS011;19501;50.948;5.316;2023-08-17T14:28:32;36.22;;;20.05;;
33138;SDS011;19501;50.948;5.316;2023-08-17T14:30:58;38.28;;;21.02;;
33138;SDS011;19501;50.948;5.316;2023-08-17T14:33:24;34.03;;;20.13;;
33138;SDS011;19501;50.948;5.316;2023-08-17T14:35:49;34.00;;;19.48;;
33138;SDS011;19501;50.948;5.316;2023-08-17T14:38:17;37.10;;;20.75;;
33138;SDS011;19501;50.948;5.316;2023-08-17T14:40:43;38.13;;;21.83;;
33138;SDS011;19501;50.948;5.316;2023-08-17T14:43:13;35.90;;;21.75;;
33138;SDS011;19501;50.948;5.316;2023-08-17T14:45:40;39.42;;;22.10;;